sensor_id;sensor_type;location;lat;lon;timestamp;P1;durP1;ratioP1;P2;durP2;ratioP2
62832;SDS011;48891;49.220;6.920;2023-04-24T00:01:34;18.08;;;14.93;;
62832;SDS011;48891;49.220;6.920;2023-04-24T00:03:59;17.50;;;14.90;;
62832;SDS011;48891;49.220;6.920;2023-04-24T00:06:25;17.25;;;13.80;;
62832;SDS011;48891;49.220;6.920;2023-04-24T00:08:51;16.20;;;13.85;;
62832;SDS011;48891;49.220;6.920;2023-04-24T00:11:16;16.77;;;13.77;;
62832;SDS011;48891;49.220;6.920;2023-04-24T00:13:41;16.90;;;14.20;;
62832;SDS011;48891;49.220;6.920;2023-04-24T00:16:06;17.38;;;14.25;;
62832;SDS011;48891;49.220;6.920;2023-04-24T00:18:32;19.50;;;15.07;;
62832;SDS011;48891;49.220;6.920;2023-04-24T00:20:57;17.23;;;14.90;;
62832;SDS011;48891;49.220;6.920;2023-04-24T00:23:22;18.58;;;15.00;;
62832;SDS011;48891;49.220;6.920;2023-04-24T00:25:47;19.75;;;15.80;;
62832;SDS011;48891;49.220;6.920;2023-04-24T00:28:13;19.90;;;15.85;;
62832;SDS011;48891;49.220;6.920;2023-04-24T00:30:38;18.63;;;15.73;;
62832;SDS011;48891;49.220;6.920;2023-04-24T00:33:03;18.85;;;15.40;;
62832;SDS011;48891;49.220;6.920;2023-04-24T00:35:28;18.92;;;16.23;;
62832;SDS011;48891;49.220;6.920;2023-04-24T00:37:54;18.38;;;16.10;;
62832;SDS011;48891;49.220;6.920;2023-04-24T00:40:19;17.80;;;15.70;;
62832;SDS011;48891;49.220;6.920;2023-04-24T00:42:44;18.70;;;15.75;;
62832;SDS011;48891;49.220;6.920;2023-04-24T00:45:10;19.17;;;16.45;;
62832;SDS011;48891;49.220;6.920;2023-04-24T00:47:36;20.80;;;16.98;;
62832;SDS011;48891;49.220;6.920;2023-04-24T00:50:04;19.90;;;16.48;;
62832;SDS011;48891;49.220;6.920;2023-04-24T00:52:30;20.45;;;17.17;;
62832;SDS011;48891;49.220;6.920;2023-04-24T00:54:55;21.50;;;16.85;;
62832;SDS011;48891;49.220;6.920;2023-04-24T00:57:20;22.23;;;18.02;;
62832;SDS011;48891;49.220;6.920;2023-04-24T00:59:46;20.15;;;16.92;;
62832;SDS011;48891;49.220;6.920;2023-04-24T01:02:11;19.60;;;17.10;;
62832;SDS011;48891;49.220;6.920;2023-04-24T01:04:37;20.40;;;17.15;;
62832;SDS011;48891;49.220;6.920;2023-04-24T01:07:03;21.83;;;19.33;;
62832;SDS011;48891;49.220;6.920;2023-04-24T01:09:29;19.60;;;16.67;;
62832;SDS011;48891;49.220;6.920;2023-04-24T01:11:54;22.75;;;17.42;;
62832;SDS011;48891;49.220;6.920;2023-04-24T01:14:20;23.63;;;19.08;;
62832;SDS011;48891;49.220;6.920;2023-04-24T01:16:45;22.88;;;18.58;;
62832;SDS011;48891;49.220;6.920;2023-04-24T01:19:10;21.63;;;18.05;;
62832;SDS011;48891;49.220;6.920;2023-04-24T01:21:36;21.80;;;18.15;;
62832;SDS011;48891;49.220;6.920;2023-04-24T01:24:06;24.23;;;18.60;;
62832;SDS011;48891;49.220;6.920;2023-04-24T01:26:32;24.27;;;19.42;;
62832;SDS011;48891;49.220;6.920;2023-04-24T01:28:57;21.15;;;18.23;;
62832;SDS011;48891;49.220;6.920;2023-04-24T01:31:23;22.30;;;18.52;;
62832;SDS011;48891;49.220;6.920;2023-04-24T01:33:49;21.83;;;18.48;;
62832;SDS011;48891;49.220;6.920;2023-04-24T01:36:14;21.65;;;18.40;;
62832;SDS011;48891;49.220;6.920;2023-04-24T01:38:41;23.50;;;19.77;;
62832;SDS011;48891;49.220;6.920;2023-04-24T01:41:07;20.65;;;17.83;;
62832;SDS011;48891;49.220;6.920;2023-04-24T01:43:32;23.25;;;19.38;;
62832;SDS011;48891;49.220;6.920;2023-04-24T01:45:57;23.25;;;19.27;;
62832;SDS011;48891;49.220;6.920;2023-04-24T01:48:23;23.48;;;19.77;;
62832;SDS011;48891;49.220;6.920;2023-04-24T01:50:48;21.73;;;18.88;;
62832;SDS011;48891;49.220;6.920;2023-04-24T01:53:14;22.40;;;18.65;;
62832;SDS011;48891;49.220;6.920;2023-04-24T01:55:39;23.67;;;19.58;;
62832;SDS011;48891;49.220;6.920;2023-04-24T01:58:05;21.08;;;18.42;;
62832;SDS011;48891;49.220;6.920;2023-04-24T02:00:30;23.65;;;19.55;;
62832;SDS011;48891;49.220;6.920;2023-04-24T02:02:56;22.92;;;19.75;;
62832;SDS011;48891;49.220;6.920;2023-04-24T02:05:21;24.30;;;20.10;;
62832;SDS011;48891;49.220;6.920;2023-04-24T02:07:46;23.02;;;19.75;;
62832;SDS011;48891;49.220;6.920;2023-04-24T02:10:12;23.08;;;18.92;;
62832;SDS011;48891;49.220;6.920;2023-04-24T02:12:37;22.50;;;19.55;;
62832;SDS011;48891;49.220;6.920;2023-04-24T02:15:02;23.15;;;19.27;;
62832;SDS011;48891;49.220;6.920;2023-04-24T02:17:28;25.48;;;20.65;;
62832;SDS011;48891;49.220;6.920;2023-04-24T02:19:53;24.02;;;19.98;;
62832;SDS011;48891;49.220;6.920;2023-04-24T02:22:18;22.40;;;19.30;;
62832;SDS011;48891;49.220;6.920;2023-04-24T02:24:44;23.70;;;20.55;;
62832;SDS011;48891;49.220;6.920;2023-04-24T02:27:09;24.38;;;20.67;;
62832;SDS011;48891;49.220;6.920;2023-04-24T02:29:35;27.73;;;21.77;;
62832;SDS011;48891;49.220;6.920;2023-04-24T02:32:00;27.20;;;21.95;;
62832;SDS011;48891;49.220;6.920;2023-04-24T02:34:25;26.20;;;21.52;;
62832;SDS011;48891;49.220;6.920;2023-04-24T02:36:50;25.23;;;21.80;;
62832;SDS011;48891;49.220;6.920;2023-04-24T02:39:16;24.98;;;20.90;;
62832;SDS011;48891;49.220;6.920;2023-04-24T02:41:41;25.67;;;21.35;;
62832;SDS011;48891;49.220;6.920;2023-04-24T02:44:06;24.25;;;20.45;;
62832;SDS011;48891;49.220;6.920;2023-04-24T02:46:31;25.08;;;20.40;;
62832;SDS011;48891;49.220;6.920;2023-04-24T02:48:57;23.33;;;20.73;;
62832;SDS011;48891;49.220;6.920;2023-04-24T02:51:22;25.80;;;21.92;;
62832;SDS011;48891;49.220;6.920;2023-04-24T02:53:47;25.65;;;21.30;;
62832;SDS011;48891;49.220;6.920;2023-04-24T02:56:12;25.15;;;21.90;;
62832;SDS011;48891;49.220;6.920;2023-04-24T02:58:38;26.60;;;22.20;;
62832;SDS011;48891;49.220;6.920;2023-04-24T03:01:03;28.38;;;23.42;;
62832;SDS011;48891;49.220;6.920;2023-04-24T03:03:28;27.55;;;22.52;;
62832;SDS011;48891;49.220;6.920;2023-04-24T03:05:53;26.15;;;21.63;;
62832;SDS011;48891;49.220;6.920;2023-04-24T03:08:19;27.00;;;22.65;;
62832;SDS011;48891;49.220;6.920;2023-04-24T03:10:44;27.85;;;22.92;;
62832;SDS011;48891;49.220;6.920;2023-04-24T03:13:09;26.10;;;22.08;;
62832;SDS011;48891;49.220;6.920;2023-04-24T03:15:34;25.13;;;21.63;;
62832;SDS011;48891;49.220;6.920;2023-04-24T03:18:00;25.92;;;22.35;;
62832;SDS011;48891;49.220;6.920;2023-04-24T03:20:25;24.38;;;21.27;;
62832;SDS011;48891;49.220;6.920;2023-04-24T03:22:50;25.48;;;21.92;;
62832;SDS011;48891;49.220;6.920;2023-04-24T03:25:15;29.52;;;22.60;;
62832;SDS011;48891;49.220;6.920;2023-04-24T03:27:40;25.90;;;21.85;;
62832;SDS011;48891;49.220;6.920;2023-04-24T03:30:06;29.40;;;23.17;;
62832;SDS011;48891;49.220;6.920;2023-04-24T03:32:32;27.25;;;23.27;;
62832;SDS011;48891;49.220;6.920;2023-04-24T03:34:57;28.13;;;22.75;;
62832;SDS011;48891;49.220;6.920;2023-04-24T03:37:22;26.40;;;23.25;;
62832;SDS011;48891;49.220;6.920;2023-04-24T03:39:48;28.42;;;23.20;;
62832;SDS011;48891;49.220;6.920;2023-04-24T03:42:13;28.42;;;23.27;;
62832;SDS011;48891;49.220;6.920;2023-04-24T03:44:38;29.77;;;24.05;;
62832;SDS011;48891;49.220;6.920;2023-04-24T03:47:03;29.27;;;24.33;;
62832;SDS011;48891;49.220;6.920;2023-04-24T03:49:29;29.77;;;24.42;;
62832;SDS011;48891;49.220;6.920;2023-04-24T03:51:54;31.98;;;25.83;;
62832;SDS011;48891;49.220;6.920;2023-04-24T03:54:19;28.83;;;24.25;;
62832;SDS011;48891;49.220;6.920;2023-04-24T03:56:44;29.80;;;25.02;;
62832;SDS011;48891;49.220;6.920;2023-04-24T03:59:10;29.58;;;24.50;;
62832;SDS011;48891;49.220;6.920;2023-04-24T04:01:35;31.38;;;24.83;;
62832;SDS011;48891;49.220;6.920;2023-04-24T04:04:01;29.95;;;24.52;;
62832;SDS011;48891;49.220;6.920;2023-04-24T04:06:26;30.95;;;24.92;;
62832;SDS011;48891;49.220;6.920;2023-04-24T04:08:51;29.55;;;25.52;;
62832;SDS011;48891;49.220;6.920;2023-04-24T04:11:16;30.65;;;25.95;;
62832;SDS011;48891;49.220;6.920;2023-04-24T04:13:42;29.73;;;24.23;;
62832;SDS011;48891;49.220;6.920;2023-04-24T04:16:08;30.52;;;24.83;;
62832;SDS011;48891;49.220;6.920;2023-04-24T04:18:33;31.83;;;24.95;;
62832;SDS011;48891;49.220;6.920;2023-04-24T04:20:59;32.38;;;24.92;;
62832;SDS011;48891;49.220;6.920;2023-04-24T04:23:24;30.75;;;26.20;;
62832;SDS011;48891;49.220;6.920;2023-04-24T04:25:49;30.52;;;24.90;;
62832;SDS011;48891;49.220;6.920;2023-04-24T04:28:14;31.83;;;25.23;;
62832;SDS011;48891;49.220;6.920;2023-04-24T04:30:40;31.30;;;25.70;;
62832;SDS011;48891;49.220;6.920;2023-04-24T04:33:05;32.60;;;25.05;;
62832;SDS011;48891;49.220;6.920;2023-04-24T04:35:30;32.05;;;25.88;;
62832;SDS011;48891;49.220;6.920;2023-04-24T04:37:55;33.50;;;26.33;;
62832;SDS011;48891;49.220;6.920;2023-04-24T04:40:21;32.15;;;26.33;;
62832;SDS011;48891;49.220;6.920;2023-04-24T04:42:46;30.08;;;24.58;;
62832;SDS011;48891;49.220;6.920;2023-04-24T04:45:11;32.88;;;26.92;;
62832;SDS011;48891;49.220;6.920;2023-04-24T04:47:36;32.20;;;26.38;;
62832;SDS011;48891;49.220;6.920;2023-04-24T04:50:02;31.42;;;25.45;;
62832;SDS011;48891;49.220;6.920;2023-04-24T04:52:28;30.58;;;25.05;;
62832;SDS011;48891;49.220;6.920;2023-04-24T04:54:53;31.45;;;25.48;;
62832;SDS011;48891;49.220;6.920;2023-04-24T04:57:18;30.20;;;24.52;;
62832;SDS011;48891;49.220;6.920;2023-04-24T04:59:43;31.38;;;26.20;;
62832;SDS011;48891;49.220;6.920;2023-04-24T05:02:09;32.88;;;25.95;;
62832;SDS011;48891;49.220;6.920;2023-04-24T05:04:34;32.17;;;25.00;;
62832;SDS011;48891;49.220;6.920;2023-04-24T05:06:59;30.73;;;25.30;;
62832;SDS011;48891;49.220;6.920;2023-04-24T05:09:24;33.15;;;25.73;;
62832;SDS011;48891;49.220;6.920;2023-04-24T05:11:50;31.05;;;24.42;;
62832;SDS011;48891;49.220;6.920;2023-04-24T05:14:15;33.63;;;26.17;;
62832;SDS011;48891;49.220;6.920;2023-04-24T05:16:40;32.88;;;27.05;;
62832;SDS011;48891;49.220;6.920;2023-04-24T05:19:05;30.58;;;25.85;;
62832;SDS011;48891;49.220;6.920;2023-04-24T05:21:31;29.52;;;24.73;;
62832;SDS011;48891;49.220;6.920;2023-04-24T05:23:56;28.73;;;24.17;;
62832;SDS011;48891;49.220;6.920;2023-04-24T05:26:21;31.50;;;25.23;;
62832;SDS011;48891;49.220;6.920;2023-04-24T05:28:46;29.88;;;24.80;;
62832;SDS011;48891;49.220;6.920;2023-04-24T05:31:12;33.53;;;27.25;;
62832;SDS011;48891;49.220;6.920;2023-04-24T05:33:37;32.75;;;26.95;;
62832;SDS011;48891;49.220;6.920;2023-04-24T05:36:02;31.85;;;25.48;;
62832;SDS011;48891;49.220;6.920;2023-04-24T05:38:28;30.17;;;25.15;;
62832;SDS011;48891;49.220;6.920;2023-04-24T05:40:53;33.10;;;26.58;;
62832;SDS011;48891;49.220;6.920;2023-04-24T05:43:18;33.72;;;26.52;;
62832;SDS011;48891;49.220;6.920;2023-04-24T05:45:43;32.67;;;25.98;;
62832;SDS011;48891;49.220;6.920;2023-04-24T05:48:08;31.10;;;26.03;;
62832;SDS011;48891;49.220;6.920;2023-04-24T05:50:34;33.08;;;26.13;;
62832;SDS011;48891;49.220;6.920;2023-04-24T05:52:59;32.72;;;26.42;;
62832;SDS011;48891;49.220;6.920;2023-04-24T05:55:24;33.22;;;27.05;;
62832;SDS011;48891;49.220;6.920;2023-04-24T05:57:50;32.28;;;26.88;;
62832;SDS011;48891;49.220;6.920;2023-04-24T06:00:15;31.13;;;25.45;;
62832;SDS011;48891;49.220;6.920;2023-04-24T06:02:41;33.75;;;26.52;;
62832;SDS011;48891;49.220;6.920;2023-04-24T06:05:06;29.10;;;24.02;;
62832;SDS011;48891;49.220;6.920;2023-04-24T06:07:32;32.50;;;25.52;;
62832;SDS011;48891;49.220;6.920;2023-04-24T06:09:57;32.70;;;25.80;;
62832;SDS011;48891;49.220;6.920;2023-04-24T06:12:22;30.27;;;24.27;;
62832;SDS011;48891;49.220;6.920;2023-04-24T06:14:48;32.22;;;26.63;;
62832;SDS011;48891;49.220;6.920;2023-04-24T06:17:13;29.48;;;24.45;;
62832;SDS011;48891;49.220;6.920;2023-04-24T06:19:39;29.55;;;24.25;;
62832;SDS011;48891;49.220;6.920;2023-04-24T06:22:04;32.20;;;25.30;;
62832;SDS011;48891;49.220;6.920;2023-04-24T06:24:29;31.60;;;25.20;;
62832;SDS011;48891;49.220;6.920;2023-04-24T06:26:55;29.80;;;23.40;;
62832;SDS011;48891;49.220;6.920;2023-04-24T06:29:20;33.78;;;26.75;;
62832;SDS011;48891;49.220;6.920;2023-04-24T06:31:45;32.20;;;25.80;;
62832;SDS011;48891;49.220;6.920;2023-04-24T06:34:11;30.58;;;25.33;;
62832;SDS011;48891;49.220;6.920;2023-04-24T06:36:36;30.83;;;24.67;;
62832;SDS011;48891;49.220;6.920;2023-04-24T06:39:01;30.08;;;25.20;;
62832;SDS011;48891;49.220;6.920;2023-04-24T06:41:27;30.13;;;24.30;;
62832;SDS011;48891;49.220;6.920;2023-04-24T06:43:53;29.17;;;24.17;;
62832;SDS011;48891;49.220;6.920;2023-04-24T06:46:18;30.77;;;24.50;;
62832;SDS011;48891;49.220;6.920;2023-04-24T06:48:43;30.60;;;23.95;;
62832;SDS011;48891;49.220;6.920;2023-04-24T06:51:09;29.08;;;23.50;;
62832;SDS011;48891;49.220;6.920;2023-04-24T06:53:34;29.95;;;24.02;;
62832;SDS011;48891;49.220;6.920;2023-04-24T06:55:59;31.70;;;24.35;;
62832;SDS011;48891;49.220;6.920;2023-04-24T06:58:25;30.60;;;24.80;;
62832;SDS011;48891;49.220;6.920;2023-04-24T07:00:50;29.67;;;24.55;;
62832;SDS011;48891;49.220;6.920;2023-04-24T07:03:15;27.80;;;23.77;;
62832;SDS011;48891;49.220;6.920;2023-04-24T07:05:40;29.58;;;24.40;;
62832;SDS011;48891;49.220;6.920;2023-04-24T07:08:06;30.98;;;24.48;;
62832;SDS011;48891;49.220;6.920;2023-04-24T07:10:31;29.25;;;24.42;;
62832;SDS011;48891;49.220;6.920;2023-04-24T07:12:56;29.85;;;23.38;;
62832;SDS011;48891;49.220;6.920;2023-04-24T07:15:22;29.92;;;22.65;;
62832;SDS011;48891;49.220;6.920;2023-04-24T07:17:47;31.15;;;24.10;;
62832;SDS011;48891;49.220;6.920;2023-04-24T07:20:13;29.95;;;23.45;;
62832;SDS011;48891;49.220;6.920;2023-04-24T07:22:38;29.33;;;23.48;;
62832;SDS011;48891;49.220;6.920;2023-04-24T07:25:03;27.90;;;21.52;;
62832;SDS011;48891;49.220;6.920;2023-04-24T07:27:29;28.00;;;22.08;;
62832;SDS011;48891;49.220;6.920;2023-04-24T07:29:54;28.20;;;22.80;;
62832;SDS011;48891;49.220;6.920;2023-04-24T07:32:19;29.85;;;22.23;;
62832;SDS011;48891;49.220;6.920;2023-04-24T07:34:45;29.48;;;23.20;;
62832;SDS011;48891;49.220;6.920;2023-04-24T07:37:10;28.10;;;22.52;;
62832;SDS011;48891;49.220;6.920;2023-04-24T07:39:35;26.85;;;22.23;;
62832;SDS011;48891;49.220;6.920;2023-04-24T07:42:00;28.42;;;23.13;;
62832;SDS011;48891;49.220;6.920;2023-04-24T07:44:25;25.63;;;21.27;;
62832;SDS011;48891;49.220;6.920;2023-04-24T07:46:51;28.83;;;22.27;;
62832;SDS011;48891;49.220;6.920;2023-04-24T07:49:16;26.73;;;20.80;;
62832;SDS011;48891;49.220;6.920;2023-04-24T07:51:41;29.42;;;23.63;;
62832;SDS011;48891;49.220;6.920;2023-04-24T07:54:06;25.92;;;21.73;;
62832;SDS011;48891;49.220;6.920;2023-04-24T07:56:32;26.83;;;22.08;;
62832;SDS011;48891;49.220;6.920;2023-04-24T07:58:58;26.42;;;21.38;;
62832;SDS011;48891;49.220;6.920;2023-04-24T08:01:23;28.17;;;21.23;;
62832;SDS011;48891;49.220;6.920;2023-04-24T08:03:49;29.25;;;21.50;;
62832;SDS011;48891;49.220;6.920;2023-04-24T08:06:14;26.20;;;20.15;;
62832;SDS011;48891;49.220;6.920;2023-04-24T08:08:39;26.58;;;21.08;;
62832;SDS011;48891;49.220;6.920;2023-04-24T08:11:04;25.95;;;20.55;;
62832;SDS011;48891;49.220;6.920;2023-04-24T08:13:30;25.05;;;19.88;;
62832;SDS011;48891;49.220;6.920;2023-04-24T08:15:56;27.55;;;21.25;;
62832;SDS011;48891;49.220;6.920;2023-04-24T08:18:22;25.75;;;19.98;;
62832;SDS011;48891;49.220;6.920;2023-04-24T08:20:47;23.35;;;19.92;;
62832;SDS011;48891;49.220;6.920;2023-04-24T08:23:12;27.20;;;20.52;;
62832;SDS011;48891;49.220;6.920;2023-04-24T08:25:38;26.45;;;20.70;;
62832;SDS011;48891;49.220;6.920;2023-04-24T08:28:06;24.05;;;20.85;;
62832;SDS011;48891;49.220;6.920;2023-04-24T08:30:33;24.35;;;19.90;;
62832;SDS011;48891;49.220;6.920;2023-04-24T08:32:58;23.88;;;18.98;;
62832;SDS011;48891;49.220;6.920;2023-04-24T08:35:24;25.33;;;19.88;;
62832;SDS011;48891;49.220;6.920;2023-04-24T08:37:49;25.42;;;19.77;;
62832;SDS011;48891;49.220;6.920;2023-04-24T08:40:15;24.83;;;19.33;;
62832;SDS011;48891;49.220;6.920;2023-04-24T08:42:42;25.67;;;20.60;;
62832;SDS011;48891;49.220;6.920;2023-04-24T08:45:08;22.67;;;18.73;;
62832;SDS011;48891;49.220;6.920;2023-04-24T08:47:35;25.23;;;19.08;;
62832;SDS011;48891;49.220;6.920;2023-04-24T08:50:02;24.05;;;18.63;;
62832;SDS011;48891;49.220;6.920;2023-04-24T08:52:28;23.40;;;18.17;;
62832;SDS011;48891;49.220;6.920;2023-04-24T08:54:54;23.08;;;17.52;;
62832;SDS011;48891;49.220;6.920;2023-04-24T08:57:20;23.20;;;18.30;;
62832;SDS011;48891;49.220;6.920;2023-04-24T08:59:46;22.85;;;18.63;;
62832;SDS011;48891;49.220;6.920;2023-04-24T09:02:11;23.83;;;18.40;;
62832;SDS011;48891;49.220;6.920;2023-04-24T09:04:38;23.13;;;18.23;;
62832;SDS011;48891;49.220;6.920;2023-04-24T09:07:05;24.10;;;18.70;;
62832;SDS011;48891;49.220;6.920;2023-04-24T09:09:31;21.80;;;17.67;;
62832;SDS011;48891;49.220;6.920;2023-04-24T09:11:57;24.10;;;18.65;;
62832;SDS011;48891;49.220;6.920;2023-04-24T09:14:23;22.00;;;18.30;;
62832;SDS011;48891;49.220;6.920;2023-04-24T09:16:49;22.13;;;17.02;;
62832;SDS011;48891;49.220;6.920;2023-04-24T09:19:15;22.92;;;18.08;;
62832;SDS011;48891;49.220;6.920;2023-04-24T09:21:40;21.80;;;17.38;;
62832;SDS011;48891;49.220;6.920;2023-04-24T09:24:07;22.40;;;18.20;;
62832;SDS011;48891;49.220;6.920;2023-04-24T09:26:39;24.33;;;19.30;;
62832;SDS011;48891;49.220;6.920;2023-04-24T09:29:05;21.10;;;17.65;;
62832;SDS011;48891;49.220;6.920;2023-04-24T09:31:30;22.30;;;18.20;;
62832;SDS011;48891;49.220;6.920;2023-04-24T09:34:03;22.38;;;18.33;;
62832;SDS011;48891;49.220;6.920;2023-04-24T09:36:30;21.83;;;16.77;;
62832;SDS011;48891;49.220;6.920;2023-04-24T09:38:58;20.05;;;16.52;;
62832;SDS011;48891;49.220;6.920;2023-04-24T09:41:24;22.30;;;17.75;;
62832;SDS011;48891;49.220;6.920;2023-04-24T09:43:50;23.05;;;17.85;;
62832;SDS011;48891;49.220;6.920;2023-04-24T09:46:19;22.42;;;18.13;;
62832;SDS011;48891;49.220;6.920;2023-04-24T09:48:44;21.92;;;17.30;;
62832;SDS011;48891;49.220;6.920;2023-04-24T09:51:09;24.17;;;17.85;;
62832;SDS011;48891;49.220;6.920;2023-04-24T09:53:34;21.38;;;17.27;;
62832;SDS011;48891;49.220;6.920;2023-04-24T09:56:06;22.77;;;17.48;;
62832;SDS011;48891;49.220;6.920;2023-04-24T09:58:34;23.77;;;17.73;;
62832;SDS011;48891;49.220;6.920;2023-04-24T10:01:01;21.67;;;17.38;;
62832;SDS011;48891;49.220;6.920;2023-04-24T10:03:29;22.90;;;17.67;;
62832;SDS011;48891;49.220;6.920;2023-04-24T10:05:59;22.48;;;18.00;;
62832;SDS011;48891;49.220;6.920;2023-04-24T10:08:25;20.95;;;16.95;;
62832;SDS011;48891;49.220;6.920;2023-04-24T10:10:51;21.33;;;17.02;;
62832;SDS011;48891;49.220;6.920;2023-04-24T10:13:17;21.27;;;17.25;;
62832;SDS011;48891;49.220;6.920;2023-04-24T10:15:43;24.25;;;17.63;;
62832;SDS011;48891;49.220;6.920;2023-04-24T10:18:09;20.30;;;16.48;;
62832;SDS011;48891;49.220;6.920;2023-04-24T10:20:36;21.77;;;16.73;;
62832;SDS011;48891;49.220;6.920;2023-04-24T10:23:03;20.40;;;16.30;;
62832;SDS011;48891;49.220;6.920;2023-04-24T10:25:30;22.77;;;17.00;;
62832;SDS011;48891;49.220;6.920;2023-04-24T10:27:58;22.25;;;17.23;;
62832;SDS011;48891;49.220;6.920;2023-04-24T10:30:30;20.90;;;16.20;;
62832;SDS011;48891;49.220;6.920;2023-04-24T10:32:57;20.92;;;16.10;;
62832;SDS011;48891;49.220;6.920;2023-04-24T10:35:22;20.10;;;16.77;;
62832;SDS011;48891;49.220;6.920;2023-04-24T10:37:48;19.85;;;15.52;;
62832;SDS011;48891;49.220;6.920;2023-04-24T10:40:19;22.55;;;17.15;;
62832;SDS011;48891;49.220;6.920;2023-04-24T10:42:51;21.25;;;16.67;;
62832;SDS011;48891;49.220;6.920;2023-04-24T10:45:17;23.23;;;18.42;;
62832;SDS011;48891;49.220;6.920;2023-04-24T10:47:50;22.52;;;17.65;;
62832;SDS011;48891;49.220;6.920;2023-04-24T10:50:42;22.90;;;17.02;;
62832;SDS011;48891;49.220;6.920;2023-04-24T10:53:12;23.05;;;16.80;;
62832;SDS011;48891;49.220;6.920;2023-04-24T10:55:41;22.65;;;17.00;;
62832;SDS011;48891;49.220;6.920;2023-04-24T10:58:10;21.52;;;17.42;;
62832;SDS011;48891;49.220;6.920;2023-04-24T11:00:36;21.00;;;16.80;;
62832;SDS011;48891;49.220;6.920;2023-04-24T11:03:04;20.75;;;16.73;;
62832;SDS011;48891;49.220;6.920;2023-04-24T11:08:15;21.35;;;16.27;;
62832;SDS011;48891;49.220;6.920;2023-04-24T11:10:47;23.75;;;16.80;;
62832;SDS011;48891;49.220;6.920;2023-04-24T11:13:21;21.05;;;16.55;;
62832;SDS011;48891;49.220;6.920;2023-04-24T11:18:39;21.02;;;16.55;;
62832;SDS011;48891;49.220;6.920;2023-04-24T11:21:10;22.90;;;17.58;;
62832;SDS011;48891;49.220;6.920;2023-04-24T11:23:36;25.33;;;17.23;;
62832;SDS011;48891;49.220;6.920;2023-04-24T11:29:07;22.42;;;17.10;;
62832;SDS011;48891;49.220;6.920;2023-04-24T11:31:39;22.48;;;17.05;;
62832;SDS011;48891;49.220;6.920;2023-04-24T11:34:06;21.10;;;16.65;;
62832;SDS011;48891;49.220;6.920;2023-04-24T11:36:35;23.63;;;18.15;;
62832;SDS011;48891;49.220;6.920;2023-04-24T11:39:01;21.73;;;17.67;;
62832;SDS011;48891;49.220;6.920;2023-04-24T11:41:27;23.15;;;17.33;;
62832;SDS011;48891;49.220;6.920;2023-04-24T11:43:53;22.95;;;17.90;;
62832;SDS011;48891;49.220;6.920;2023-04-24T11:46:22;23.67;;;18.02;;
62832;SDS011;48891;49.220;6.920;2023-04-24T11:48:48;22.55;;;16.95;;
62832;SDS011;48891;49.220;6.920;2023-04-24T11:51:13;21.50;;;17.33;;
62832;SDS011;48891;49.220;6.920;2023-04-24T11:53:39;23.45;;;18.10;;
62832;SDS011;48891;49.220;6.920;2023-04-24T11:56:04;23.17;;;17.48;;
62832;SDS011;48891;49.220;6.920;2023-04-24T11:58:34;22.35;;;17.83;;
62832;SDS011;48891;49.220;6.920;2023-04-24T12:01:00;21.90;;;17.58;;
62832;SDS011;48891;49.220;6.920;2023-04-24T12:03:25;23.75;;;18.52;;
62832;SDS011;48891;49.220;6.920;2023-04-24T12:05:50;24.90;;;18.88;;
62832;SDS011;48891;49.220;6.920;2023-04-24T12:08:28;23.83;;;17.48;;
62832;SDS011;48891;49.220;6.920;2023-04-24T12:10:53;22.73;;;18.08;;
62832;SDS011;48891;49.220;6.920;2023-04-24T12:13:19;19.45;;;16.45;;
62832;SDS011;48891;49.220;6.920;2023-04-24T12:15:44;22.75;;;18.30;;
62832;SDS011;48891;49.220;6.920;2023-04-24T12:18:11;22.25;;;17.52;;
62832;SDS011;48891;49.220;6.920;2023-04-24T12:20:37;20.35;;;17.20;;
62832;SDS011;48891;49.220;6.920;2023-04-24T12:23:02;22.55;;;17.80;;
62832;SDS011;48891;49.220;6.920;2023-04-24T12:25:31;23.65;;;18.90;;
62832;SDS011;48891;49.220;6.920;2023-04-24T12:30:28;20.77;;;16.92;;
62832;SDS011;48891;49.220;6.920;2023-04-24T12:32:56;22.50;;;17.95;;
62832;SDS011;48891;49.220;6.920;2023-04-24T12:35:24;21.92;;;17.90;;
62832;SDS011;48891;49.220;6.920;2023-04-24T12:37:50;25.73;;;18.80;;
62832;SDS011;48891;49.220;6.920;2023-04-24T12:40:16;22.10;;;16.88;;
62832;SDS011;48891;49.220;6.920;2023-04-24T12:45:09;21.65;;;18.30;;
62832;SDS011;48891;49.220;6.920;2023-04-24T12:47:34;24.83;;;18.80;;
62832;SDS011;48891;49.220;6.920;2023-04-24T12:50:00;25.50;;;19.52;;
62832;SDS011;48891;49.220;6.920;2023-04-24T12:52:27;25.38;;;18.50;;
62832;SDS011;48891;49.220;6.920;2023-04-24T12:54:53;25.75;;;19.10;;
62832;SDS011;48891;49.220;6.920;2023-04-24T12:57:20;22.40;;;17.83;;
62832;SDS011;48891;49.220;6.920;2023-04-24T12:59:46;25.00;;;19.30;;
62832;SDS011;48891;49.220;6.920;2023-04-24T13:02:11;24.83;;;18.90;;
62832;SDS011;48891;49.220;6.920;2023-04-24T13:04:37;22.50;;;18.50;;
62832;SDS011;48891;49.220;6.920;2023-04-24T13:07:03;23.90;;;18.88;;
62832;SDS011;48891;49.220;6.920;2023-04-24T13:09:28;21.25;;;18.40;;
62832;SDS011;48891;49.220;6.920;2023-04-24T13:11:53;24.70;;;18.77;;
62832;SDS011;48891;49.220;6.920;2023-04-24T13:14:19;23.23;;;18.33;;
62832;SDS011;48891;49.220;6.920;2023-04-24T13:16:44;23.80;;;18.77;;
62832;SDS011;48891;49.220;6.920;2023-04-24T13:19:10;22.92;;;18.10;;
62832;SDS011;48891;49.220;6.920;2023-04-24T13:21:35;27.43;;;19.00;;
62832;SDS011;48891;49.220;6.920;2023-04-24T13:24:00;24.55;;;19.85;;
62832;SDS011;48891;49.220;6.920;2023-04-24T13:26:25;23.50;;;19.75;;
62832;SDS011;48891;49.220;6.920;2023-04-24T13:28:50;23.27;;;18.13;;
62832;SDS011;48891;49.220;6.920;2023-04-24T13:31:16;24.52;;;19.13;;
62832;SDS011;48891;49.220;6.920;2023-04-24T13:33:41;23.88;;;17.70;;
62832;SDS011;48891;49.220;6.920;2023-04-24T13:36:06;23.88;;;18.52;;
62832;SDS011;48891;49.220;6.920;2023-04-24T13:38:32;22.52;;;17.92;;
62832;SDS011;48891;49.220;6.920;2023-04-24T13:40:57;24.05;;;18.92;;
62832;SDS011;48891;49.220;6.920;2023-04-24T13:43:22;22.95;;;18.17;;
62832;SDS011;48891;49.220;6.920;2023-04-24T13:45:47;22.90;;;18.42;;
62832;SDS011;48891;49.220;6.920;2023-04-24T13:48:13;23.27;;;18.27;;
62832;SDS011;48891;49.220;6.920;2023-04-24T13:50:38;24.90;;;19.50;;
62832;SDS011;48891;49.220;6.920;2023-04-24T13:53:03;24.23;;;19.10;;
62832;SDS011;48891;49.220;6.920;2023-04-24T13:55:29;24.20;;;18.90;;
62832;SDS011;48891;49.220;6.920;2023-04-24T13:57:54;22.90;;;18.60;;
62832;SDS011;48891;49.220;6.920;2023-04-24T14:00:20;23.98;;;19.73;;
62832;SDS011;48891;49.220;6.920;2023-04-24T14:02:45;26.63;;;20.50;;
62832;SDS011;48891;49.220;6.920;2023-04-24T14:05:11;24.15;;;18.85;;
62832;SDS011;48891;49.220;6.920;2023-04-24T14:07:38;23.08;;;19.08;;
62832;SDS011;48891;49.220;6.920;2023-04-24T14:10:03;25.95;;;20.33;;
62832;SDS011;48891;49.220;6.920;2023-04-24T14:12:28;23.83;;;19.73;;
62832;SDS011;48891;49.220;6.920;2023-04-24T14:14:54;22.10;;;19.08;;
62832;SDS011;48891;49.220;6.920;2023-04-24T14:17:19;25.08;;;19.90;;
62832;SDS011;48891;49.220;6.920;2023-04-24T14:19:44;23.53;;;19.37;;
62832;SDS011;48891;49.220;6.920;2023-04-24T14:22:09;25.10;;;19.25;;
62832;SDS011;48891;49.220;6.920;2023-04-24T14:24:35;25.75;;;19.25;;
62832;SDS011;48891;49.220;6.920;2023-04-24T14:27:00;24.27;;;19.35;;